createdAt,value
2022-10-23T00:01:29.067Z,8.68
2022-10-23T00:04:02.025Z,15.07
2022-10-23T00:06:30.348Z,14.30
2022-10-23T00:08:58.123Z,11.70
2022-10-23T00:11:28.539Z,12.70
2022-10-23T00:13:58.377Z,13.40
2022-10-23T00:16:26.801Z,11.77
2022-10-23T00:18:54.388Z,13.25
2022-10-23T00:21:22.033Z,8.85
2022-10-23T00:23:51.258Z,8.52
2022-10-23T00:26:18.838Z,9.25
2022-10-23T00:28:49.275Z,11.73
2022-10-23T00:31:17.904Z,13.73
2022-10-23T00:33:45.665Z,10.65
2022-10-23T00:36:14.842Z,8.50
2022-10-23T00:38:44.334Z,8.35
2022-10-23T00:41:38.036Z,10.90
2022-10-23T00:44:09.246Z,9.57
2022-10-23T00:46:38.075Z,11.20
2022-10-23T00:49:07.511Z,14.50
2022-10-23T00:51:45.310Z,9.50
2022-10-23T00:54:29.681Z,8.45
2022-10-23T00:56:59.597Z,11.12
2022-10-23T00:59:27.650Z,11.57
2022-10-23T01:01:55.463Z,9.73
2022-10-23T01:04:24.195Z,13.15
2022-10-23T01:07:22.265Z,9.68
2022-10-23T01:10:04.111Z,8.50
2022-10-23T01:12:45.802Z,12.32
2022-10-23T01:15:22.256Z,16.45
2022-10-23T01:18:04.523Z,8.50
2022-10-23T01:20:40.005Z,11.30
2022-10-23T01:23:11.544Z,7.43
2022-10-23T01:25:58.309Z,10.88
2022-10-23T01:28:30.812Z,13.95
2022-10-23T01:30:59.973Z,8.00
2022-10-23T01:33:39.544Z,8.55
2022-10-23T01:36:12.795Z,12.95
2022-10-23T01:38:45.963Z,12.68
2022-10-23T01:41:18.357Z,8.40
2022-10-23T01:43:53.678Z,10.55
2022-10-23T01:48:52.948Z,10.20
2022-10-23T01:51:22.409Z,18.25
2022-10-23T01:53:51.245Z,8.30
2022-10-23T01:56:31.922Z,13.32
2022-10-23T01:59:03.958Z,9.45
2022-10-23T02:01:33.309Z,7.97
2022-10-23T02:04:03.684Z,8.15
2022-10-23T02:06:31.800Z,14.50
2022-10-23T02:08:59.279Z,7.10
2022-10-23T02:11:27.630Z,8.20
2022-10-23T02:14:24.706Z,7.10
2022-10-23T02:16:59.215Z,9.85
2022-10-23T02:19:50.941Z,7.82
2022-10-23T02:22:37.823Z,11.80
2022-10-23T02:25:11.627Z,15.45
2022-10-23T02:27:48.074Z,10.85
2022-10-23T02:30:18.090Z,7.32
2022-10-23T02:32:50.317Z,12.55
2022-10-23T02:35:19.904Z,7.47
2022-10-23T02:37:58.927Z,10.35
2022-10-23T02:40:32.284Z,9.88
2022-10-23T02:43:14.532Z,8.25
2022-10-23T02:46:02.767Z,9.07
2022-10-23T02:48:40.112Z,10.48
2022-10-23T02:51:15.333Z,8.43
2022-10-23T02:56:36.654Z,9.18
2022-10-23T02:59:15.667Z,9.25
2022-10-23T03:01:52.115Z,7.87
2022-10-23T03:04:24.172Z,10.85
2022-10-23T03:06:51.848Z,7.53
2022-10-23T03:09:19.337Z,7.50
2022-10-23T03:11:47.021Z,8.07
2022-10-23T03:14:14.635Z,9.35
2022-10-23T03:16:42.049Z,6.90
2022-10-23T03:21:41.220Z,8.73
2022-10-23T03:24:09.186Z,8.25
2022-10-23T03:26:37.893Z,7.07
2022-10-23T03:29:05.587Z,8.23
2022-10-23T03:31:36.305Z,8.52
2022-10-23T03:34:09.986Z,8.98
2022-10-23T03:36:38.500Z,7.55
2022-10-23T03:39:06.370Z,8.75
2022-10-23T03:41:33.829Z,13.07
2022-10-23T03:44:01.351Z,7.82
2022-10-23T03:46:29.144Z,9.93
2022-10-23T03:48:59.645Z,12.27
2022-10-23T03:51:27.150Z,9.30
2022-10-23T03:53:55.006Z,10.23
2022-10-23T03:56:22.752Z,11.98
2022-10-23T03:58:50.182Z,10.95
2022-10-23T04:01:17.967Z,9.75
2022-10-23T04:03:45.748Z,10.10
2022-10-23T04:06:13.274Z,14.45
2022-10-23T04:08:43.272Z,9.88
2022-10-23T04:11:11.942Z,17.60
2022-10-23T04:13:40.391Z,9.85
2022-10-23T04:16:08.026Z,10.68
2022-10-23T04:18:35.740Z,10.60
2022-10-23T04:21:03.670Z,7.90
2022-10-23T04:23:31.092Z,8.32
2022-10-23T04:25:58.960Z,11.05
2022-10-23T04:28:26.847Z,6.78
2022-10-23T04:30:54.342Z,8.23
2022-10-23T04:33:22.162Z,12.27
2022-10-23T04:35:49.826Z,7.87
2022-10-23T04:38:17.423Z,11.68
2022-10-23T04:40:45.152Z,12.15
2022-10-23T04:43:12.790Z,6.18
2022-10-23T04:45:40.422Z,8.10
2022-10-23T04:48:09.473Z,5.57
2022-10-23T04:50:38.607Z,8.20
2022-10-23T04:53:06.120Z,9.45
2022-10-23T04:55:34.424Z,5.20
2022-10-23T04:58:04.670Z,8.32
2022-10-23T05:00:32.726Z,5.37
2022-10-23T05:03:01.402Z,7.12
2022-10-23T05:05:30.311Z,6.30
2022-10-23T05:07:57.861Z,6.80
2022-10-23T05:10:26.459Z,7.28
2022-10-23T05:12:54.490Z,6.12
2022-10-23T05:15:21.965Z,9.48
2022-10-23T05:17:54.187Z,9.43
2022-10-23T05:20:23.618Z,11.12
2022-10-23T05:22:52.624Z,9.02
2022-10-23T05:25:20.861Z,11.98
2022-10-23T05:27:48.645Z,6.15
2022-10-23T05:30:16.718Z,7.87
2022-10-23T05:32:44.721Z,6.65
2022-10-23T05:35:16.462Z,5.70
2022-10-23T05:37:48.283Z,5.28
2022-10-23T05:40:18.028Z,7.78
2022-10-23T05:42:48.658Z,8.07
2022-10-23T05:45:16.579Z,8.10
2022-10-23T05:47:45.247Z,7.57
2022-10-23T05:50:13.267Z,7.47
2022-10-23T05:52:47.503Z,4.82
2022-10-23T05:55:16.652Z,9.60
2022-10-23T05:57:45.092Z,7.00
2022-10-23T06:00:13.812Z,6.72
2022-10-23T06:02:41.414Z,9.40
2022-10-23T06:05:10.047Z,7.68
2022-10-23T06:07:39.361Z,6.30
2022-10-23T06:10:07.312Z,8.93
2022-10-23T06:12:35.095Z,9.95
2022-10-23T06:15:02.580Z,7.03
2022-10-23T06:17:31.979Z,8.60
2022-10-23T06:20:02.511Z,9.85
2022-10-23T06:22:30.802Z,8.52
2022-10-23T06:24:59.927Z,12.85
2022-10-23T06:27:27.952Z,7.72
2022-10-23T06:29:55.876Z,9.35
2022-10-23T06:32:23.275Z,9.25
2022-10-23T06:34:53.183Z,6.87
2022-10-23T06:37:21.651Z,7.37
2022-10-23T06:39:49.816Z,8.63
2022-10-23T06:42:17.602Z,9.57
2022-10-23T06:44:48.412Z,6.72
2022-10-23T06:49:54.662Z,7.10
2022-10-23T06:52:42.079Z,7.18
2022-10-23T06:55:11.371Z,7.47
2022-10-23T06:57:38.928Z,13.10
2022-10-23T07:00:07.241Z,10.32
2022-10-23T07:02:36.706Z,8.48
2022-10-23T07:05:06.757Z,8.93
2022-10-23T07:07:36.898Z,8.05
2022-10-23T07:10:05.261Z,10.07
2022-10-23T07:12:34.323Z,8.77
2022-10-23T07:15:05.538Z,13.60
2022-10-23T07:17:34.086Z,6.60
2022-10-23T07:20:01.636Z,13.45
2022-10-23T07:22:29.432Z,8.63
2022-10-23T07:25:00.960Z,6.90
2022-10-23T07:27:29.090Z,7.60
2022-10-23T07:29:56.714Z,9.88
2022-10-23T07:32:24.750Z,9.73
2022-10-23T07:34:55.294Z,7.07
2022-10-23T07:37:23.482Z,8.52
2022-10-23T07:39:51.317Z,8.63
2022-10-23T07:42:19.034Z,10.40
2022-10-23T07:44:46.747Z,9.48
2022-10-23T07:47:14.195Z,15.32
2022-10-23T07:49:42.738Z,10.98
2022-10-23T07:52:10.316Z,9.73
2022-10-23T07:54:38.907Z,7.50
2022-10-23T07:57:07.780Z,6.90
2022-10-23T07:59:37.900Z,10.10
2022-10-23T08:02:11.850Z,10.60
2022-10-23T08:04:40.118Z,10.45
2022-10-23T08:07:08.098Z,9.77
2022-10-23T08:09:38.081Z,6.47
2022-10-23T08:12:06.189Z,5.85
2022-10-23T08:14:33.718Z,7.62
2022-10-23T08:19:31.964Z,7.28
2022-10-23T08:21:59.525Z,9.80
2022-10-23T08:24:27.043Z,5.35
2022-10-23T08:26:54.829Z,8.80
2022-10-23T08:29:23.123Z,7.00
2022-10-23T08:31:53.727Z,7.12
2022-10-23T08:34:22.306Z,5.40
2022-10-23T08:36:50.533Z,7.55
2022-10-23T08:39:18.387Z,10.70
2022-10-23T08:41:51.581Z,8.27
2022-10-23T08:44:22.783Z,8.32
2022-10-23T08:47:02.936Z,8.85
2022-10-23T08:49:49.278Z,7.50
2022-10-23T08:52:30.376Z,7.32
2022-10-23T08:55:13.026Z,10.35
2022-10-23T08:57:47.432Z,6.78
2022-10-23T09:00:16.701Z,7.75
2022-10-23T09:02:50.842Z,7.62
2022-10-23T09:05:19.771Z,7.43
2022-10-23T09:08:12.907Z,8.55
2022-10-23T09:11:30.674Z,8.15
2022-10-23T09:14:26.756Z,14.48
2022-10-23T09:17:18.947Z,10.18
2022-10-23T09:19:46.802Z,8.73
2022-10-23T09:22:14.388Z,8.80
2022-10-23T09:24:44.880Z,8.75
2022-10-23T09:27:17.045Z,12.98
2022-10-23T09:29:53.770Z,13.60
2022-10-23T09:32:33.621Z,11.20
2022-10-23T09:35:01.149Z,9.50
2022-10-23T09:37:30.909Z,11.95
2022-10-23T09:40:19.200Z,9.82
2022-10-23T09:42:55.838Z,8.98
2022-10-23T09:45:26.047Z,10.10
2022-10-23T09:48:19.451Z,8.23
2022-10-23T09:51:01.323Z,8.40
2022-10-23T09:53:40.594Z,8.60
2022-10-23T09:56:25.604Z,6.93
2022-10-23T09:58:57.064Z,6.53
2022-10-23T10:01:30.703Z,7.50
2022-10-23T10:04:00.466Z,7.12
2022-10-23T10:06:30.505Z,7.62
2022-10-23T10:09:05.250Z,9.52
2022-10-23T10:11:39.228Z,9.43
2022-10-23T10:14:12.513Z,8.27
2022-10-23T10:16:58.466Z,8.38
2022-10-23T10:19:28.868Z,8.85
2022-10-23T10:22:09.609Z,7.65
2022-10-23T10:25:23.234Z,7.32
2022-10-23T10:28:13.716Z,6.95
2022-10-23T10:30:52.013Z,6.07
2022-10-23T10:33:30.810Z,6.50
2022-10-23T10:36:04.802Z,6.55
2022-10-23T10:38:50.526Z,11.67
2022-10-23T10:41:56.045Z,8.32
2022-10-23T10:44:32.691Z,10.52
2022-10-23T10:47:29.772Z,12.98
2022-10-23T10:50:19.647Z,13.52
2022-10-23T10:53:02.637Z,17.45
2022-10-23T10:55:34.352Z,18.37
2022-10-23T10:58:11.362Z,24.80
2022-10-23T11:00:39.134Z,18.25
2022-10-23T11:03:44.937Z,26.27
2022-10-23T11:06:16.172Z,32.45
2022-10-23T11:08:57.153Z,37.25
2022-10-23T11:11:35.341Z,23.30
2022-10-23T11:14:02.962Z,34.42
2022-10-23T11:16:40.074Z,35.20
2022-10-23T11:19:16.527Z,32.28
2022-10-23T11:22:05.286Z,31.83
2022-10-23T11:24:58.429Z,34.05
2022-10-23T11:27:32.247Z,34.22
2022-10-23T11:30:13.129Z,31.95
2022-10-23T11:32:59.695Z,23.95
2022-10-23T11:35:45.406Z,21.87
2022-10-23T11:38:13.003Z,27.90
2022-10-23T11:40:46.307Z,27.90
2022-10-23T11:43:14.147Z,17.60
2022-10-23T11:45:42.240Z,18.05
2022-10-23T11:48:35.725Z,19.60
2022-10-23T11:51:05.188Z,16.87
2022-10-23T11:53:32.762Z,8.48
2022-10-23T11:56:04.315Z,9.02
2022-10-23T11:58:42.518Z,13.52
2022-10-23T12:01:28.878Z,10.57
2022-10-23T12:04:14.311Z,10.13
2022-10-23T12:06:51.042Z,6.90
2022-10-23T12:09:43.398Z,9.00
2022-10-23T12:12:10.848Z,7.85
2022-10-23T12:14:39.869Z,8.85
2022-10-23T12:17:23.969Z,11.43
2022-10-23T12:20:15.985Z,11.52
2022-10-23T12:23:20.995Z,10.45
2022-10-23T12:26:12.651Z,10.82
2022-10-23T12:28:51.361Z,10.50
2022-10-23T12:31:48.808Z,9.27
2022-10-23T12:34:38.542Z,11.23
2022-10-23T12:37:21.571Z,13.10
2022-10-23T12:39:56.514Z,11.07
2022-10-23T12:45:19.278Z,9.07
2022-10-23T12:47:47.637Z,8.90
2022-10-23T12:50:29.776Z,6.45
2022-10-23T12:53:05.995Z,8.57
2022-10-23T12:55:49.091Z,8.60
2022-10-23T12:58:24.497Z,8.27
2022-10-23T13:00:57.396Z,6.82
2022-10-23T13:03:26.498Z,13.52
2022-10-23T13:05:56.075Z,8.85
2022-10-23T13:08:23.742Z,10.68
2022-10-23T13:11:01.265Z,9.73
2022-10-23T13:13:29.244Z,7.55
2022-10-23T13:15:56.949Z,8.50
2022-10-23T13:18:24.798Z,7.03
2022-10-23T13:20:52.289Z,9.65
2022-10-23T13:23:28.845Z,10.60
2022-10-23T13:25:59.082Z,9.00
2022-10-23T13:28:41.232Z,9.07
2022-10-23T13:31:15.168Z,10.20
2022-10-23T13:33:51.015Z,7.47
2022-10-23T13:36:23.804Z,9.85
2022-10-23T13:39:03.830Z,7.65
2022-10-23T13:41:40.798Z,9.13
2022-10-23T13:44:11.548Z,9.50
2022-10-23T13:46:39.519Z,10.55
2022-10-23T13:49:07.154Z,11.90
2022-10-23T13:51:42.495Z,12.27
2022-10-23T13:54:15.653Z,9.35
2022-10-23T13:56:43.252Z,7.68
2022-10-23T13:59:12.548Z,9.30
2022-10-23T14:01:40.623Z,7.62
2022-10-23T14:04:09.423Z,8.75
2022-10-23T14:06:38.251Z,13.13
2022-10-23T14:09:07.227Z,9.77
2022-10-23T14:11:35.177Z,12.30
2022-10-23T14:14:02.769Z,11.10
2022-10-23T14:16:30.547Z,14.18
2022-10-23T14:18:58.576Z,12.20
2022-10-23T14:21:26.131Z,10.43
2022-10-23T14:23:54.158Z,15.20
2022-10-23T14:26:24.946Z,15.32
2022-10-23T14:28:55.837Z,14.25
2022-10-23T14:31:24.110Z,8.15
2022-10-23T14:33:55.970Z,12.63
2022-10-23T14:36:24.598Z,11.10
2022-10-23T14:38:57.678Z,14.80
2022-10-23T14:41:27.153Z,16.77
2022-10-23T14:43:54.848Z,11.82
2022-10-23T14:46:24.334Z,14.43
2022-10-23T14:48:54.955Z,8.52
2022-10-23T14:51:28.230Z,10.43
2022-10-23T14:53:59.566Z,12.82
2022-10-23T14:56:28.350Z,13.02
2022-10-23T14:59:02.663Z,10.70
2022-10-23T15:01:31.989Z,9.13
2022-10-23T15:04:00.918Z,18.50
2022-10-23T15:06:28.518Z,32.42
2022-10-23T15:08:56.023Z,49.45
2022-10-23T15:11:24.519Z,20.15
2022-10-23T15:13:52.927Z,16.87
2022-10-23T15:16:22.204Z,19.67
2022-10-23T15:18:50.065Z,14.23
2022-10-23T15:21:17.903Z,10.93
2022-10-23T15:23:46.327Z,10.48
2022-10-23T15:26:22.869Z,7.57
2022-10-23T15:28:58.900Z,13.23
2022-10-23T15:31:29.815Z,10.20
2022-10-23T15:33:57.902Z,25.65
2022-10-23T15:36:26.746Z,18.25
2022-10-23T15:38:54.988Z,15.80
2022-10-23T15:41:27.876Z,14.55
2022-10-23T15:43:55.908Z,14.10
2022-10-23T15:46:23.350Z,15.25
2022-10-23T15:48:51.374Z,15.35
2022-10-23T15:51:20.015Z,12.57
2022-10-23T15:53:47.481Z,16.15
2022-10-23T15:56:15.152Z,15.73
2022-10-23T15:58:43.285Z,13.32
2022-10-23T16:01:10.960Z,12.20
2022-10-23T16:03:39.188Z,11.02
2022-10-23T16:06:09.104Z,11.85
2022-10-23T16:08:37.286Z,12.23
2022-10-23T16:11:13.967Z,10.52
2022-10-23T16:13:42.896Z,7.57
2022-10-23T16:16:11.039Z,8.40
2022-10-23T16:18:38.825Z,7.53
2022-10-23T16:21:07.534Z,9.57
2022-10-23T16:23:35.389Z,13.00
2022-10-23T16:26:05.166Z,8.43
2022-10-23T16:28:33.219Z,14.52
2022-10-23T16:31:02.289Z,14.02
2022-10-23T16:33:29.794Z,13.62
2022-10-23T16:36:03.232Z,7.97
2022-10-23T16:38:32.053Z,5.65
2022-10-23T16:41:02.454Z,11.93
2022-10-23T16:43:35.522Z,13.32
2022-10-23T16:46:11.879Z,9.38
2022-10-23T16:51:14.823Z,8.55
2022-10-23T16:53:44.503Z,9.30
2022-10-23T16:56:15.325Z,8.98
2022-10-23T16:58:43.536Z,8.15
2022-10-23T17:01:19.611Z,9.35
2022-10-23T17:03:49.686Z,9.35
2022-10-23T17:06:23.776Z,10.32
2022-10-23T17:08:51.941Z,6.35
2022-10-23T17:11:25.203Z,10.25
2022-10-23T17:13:58.670Z,8.98
2022-10-23T17:16:28.631Z,18.53
2022-10-23T17:18:57.487Z,9.57
2022-10-23T17:21:25.190Z,9.40
2022-10-23T17:23:52.964Z,8.15
2022-10-23T17:26:22.185Z,11.63
2022-10-23T17:28:50.044Z,13.05
2022-10-23T17:31:21.805Z,9.70
2022-10-23T17:33:52.197Z,17.05
2022-10-23T17:36:21.297Z,16.90
2022-10-23T17:38:49.565Z,12.10
2022-10-23T17:41:18.731Z,13.77
2022-10-23T17:43:46.760Z,9.52
2022-10-23T17:46:15.625Z,11.32
2022-10-23T17:48:43.700Z,11.65
2022-10-23T17:51:16.558Z,12.40
2022-10-23T17:53:47.199Z,14.60
2022-10-23T17:56:20.288Z,9.55
2022-10-23T17:58:53.172Z,13.25
2022-10-23T18:01:25.069Z,13.25
2022-10-23T18:03:54.356Z,12.40
2022-10-23T18:06:29.660Z,11.50
2022-10-23T18:08:59.730Z,14.02
2022-10-23T18:11:29.877Z,12.65
2022-10-23T18:16:28.191Z,8.90
2022-10-23T18:18:56.270Z,12.82
2022-10-23T18:21:24.955Z,11.02
2022-10-23T18:23:52.818Z,7.78
2022-10-23T18:26:23.514Z,12.18
2022-10-23T18:28:53.503Z,12.52
2022-10-23T18:31:21.224Z,7.78
2022-10-23T18:33:48.906Z,9.05
2022-10-23T18:36:20.709Z,9.80
2022-10-23T18:38:49.810Z,8.65
2022-10-23T18:41:19.026Z,8.85
2022-10-23T18:43:46.665Z,7.53
2022-10-23T18:46:14.632Z,15.98
2022-10-23T18:48:43.572Z,15.77
2022-10-23T18:51:19.949Z,10.55
2022-10-23T18:53:51.318Z,14.00
2022-10-23T18:56:22.962Z,8.88
2022-10-23T18:58:55.127Z,11.98
2022-10-23T19:01:24.879Z,7.07
2022-10-23T19:03:53.599Z,5.97
2022-10-23T19:06:22.371Z,9.07
2022-10-23T19:08:50.334Z,8.90
2022-10-23T19:11:20.495Z,8.77
2022-10-23T19:13:48.309Z,8.05
2022-10-23T19:16:47.103Z,9.10
2022-10-23T19:19:26.767Z,8.40
2022-10-23T19:21:54.849Z,10.20
2022-10-23T19:24:34.414Z,9.25
2022-10-23T19:27:02.721Z,6.55
2022-10-23T19:29:30.887Z,12.10
2022-10-23T19:31:58.623Z,7.80
2022-10-23T19:34:26.530Z,10.13
2022-10-23T19:36:55.284Z,9.85
2022-10-23T19:39:23.291Z,6.90
2022-10-23T19:41:51.715Z,6.40
2022-10-23T19:44:20.627Z,6.43
2022-10-23T19:46:48.798Z,7.97
2022-10-23T19:49:17.257Z,6.80
2022-10-23T19:51:50.934Z,10.13
2022-10-23T19:54:20.432Z,5.87
2022-10-23T19:56:48.689Z,5.78
2022-10-23T19:59:16.595Z,8.52
2022-10-23T20:01:47.760Z,9.40
2022-10-23T20:04:18.331Z,7.70
2022-10-23T20:06:46.663Z,6.10
2022-10-23T20:09:14.342Z,10.40
2022-10-23T20:11:43.492Z,13.05
2022-10-23T20:14:11.709Z,8.77
2022-10-23T20:16:39.869Z,10.57
2022-10-23T20:19:09.628Z,9.60
2022-10-23T20:21:38.776Z,9.68
2022-10-23T20:24:06.895Z,10.52
2022-10-23T20:26:34.965Z,9.35
2022-10-23T20:29:02.584Z,12.63
2022-10-23T20:31:30.269Z,13.15
2022-10-23T20:33:58.156Z,11.27
2022-10-23T20:36:27.409Z,9.35
2022-10-23T20:38:55.695Z,8.73
2022-10-23T20:41:25.038Z,11.45
2022-10-23T20:43:53.002Z,14.55
2022-10-23T20:46:20.615Z,13.93
2022-10-23T20:48:48.643Z,20.00
2022-10-23T20:51:18.347Z,10.27
2022-10-23T20:53:46.192Z,18.77
2022-10-23T20:56:33.825Z,12.43
2022-10-23T20:59:04.571Z,19.67
2022-10-23T21:01:33.429Z,17.75
2022-10-23T21:04:02.659Z,14.50
2022-10-23T21:06:51.502Z,8.80
2022-10-23T21:09:20.337Z,12.88
2022-10-23T21:11:47.790Z,16.73
2022-10-23T21:14:15.246Z,11.57
2022-10-23T21:16:44.622Z,13.25
2022-10-23T21:19:14.679Z,11.57
2022-10-23T21:21:42.722Z,6.82
2022-10-23T21:24:14.058Z,6.65
2022-10-23T21:26:41.739Z,10.82
2022-10-23T21:29:25.015Z,6.30
2022-10-23T21:31:57.976Z,8.40
2022-10-23T21:34:26.256Z,8.40
2022-10-23T21:37:11.905Z,10.77
2022-10-23T21:39:41.755Z,10.68
2022-10-23T21:42:10.291Z,13.73
2022-10-23T21:44:37.733Z,12.05
2022-10-23T21:47:05.513Z,11.55
2022-10-23T21:49:33.268Z,8.52
2022-10-23T21:52:00.744Z,16.35
2022-10-23T21:54:28.222Z,12.25
2022-10-23T21:56:56.022Z,9.82
2022-10-23T21:59:27.596Z,9.90
2022-10-23T22:01:57.877Z,14.50
2022-10-23T22:04:25.940Z,9.98
2022-10-23T22:06:53.665Z,8.25
2022-10-23T22:09:22.046Z,11.57
2022-10-23T22:11:50.874Z,13.77
2022-10-23T22:14:18.406Z,11.48
2022-10-23T22:16:46.656Z,9.68
2022-10-23T22:19:16.299Z,13.50
2022-10-23T22:21:44.126Z,9.05
2022-10-23T22:24:11.840Z,8.02
2022-10-23T22:26:42.588Z,8.02
2022-10-23T22:29:22.576Z,11.60
2022-10-23T22:31:50.610Z,10.68
2022-10-23T22:34:48.313Z,10.57
2022-10-23T22:37:14.481Z,11.65
2022-10-23T22:39:42.257Z,6.45
2022-10-23T22:42:09.808Z,12.25
2022-10-23T22:44:37.584Z,9.05
2022-10-23T22:47:05.140Z,5.80
2022-10-23T22:49:32.629Z,7.15
2022-10-23T22:52:00.340Z,12.82
2022-10-23T22:54:27.877Z,9.50
2022-10-23T22:56:55.294Z,9.07
2022-10-23T22:59:22.965Z,5.57
2022-10-23T23:01:50.531Z,6.72
2022-10-23T23:07:07.875Z,6.12
2022-10-23T23:09:40.137Z,7.40
2022-10-23T23:12:09.010Z,10.40
2022-10-23T23:14:36.869Z,8.10
2022-10-23T23:17:05.017Z,14.85
2022-10-23T23:19:33.043Z,7.75
2022-10-23T23:22:01.081Z,8.48
2022-10-23T23:24:28.644Z,9.35
2022-10-23T23:26:56.319Z,9.55
2022-10-23T23:29:23.792Z,13.05
2022-10-23T23:31:51.368Z,11.38
2022-10-23T23:34:20.068Z,5.60
2022-10-23T23:36:47.547Z,6.47
2022-10-23T23:39:14.980Z,7.75
2022-10-23T23:41:42.812Z,8.15
2022-10-23T23:44:10.367Z,9.90
2022-10-23T23:46:38.189Z,11.73
2022-10-23T23:49:05.907Z,8.98
2022-10-23T23:51:33.399Z,11.65
2022-10-23T23:54:00.878Z,7.90
2022-10-23T23:56:28.655Z,8.60
2022-10-23T23:58:57.708Z,8.50
